TimeMDT,TemperatureF,Dew PointF,Humidity,Sea Level PressureIn,VisibilityMPH,Wind Direction,Wind SpeedMPH,Gust SpeedMPH,PrecipitationIn,Events,Conditions,WindDirDegrees,DateUTC
12:56 AM,50.0,30.9,48,30.06,10.0,South,9.2,-,N/A,,Clear,180,2013-05-09 06:56:00
1:56 AM,42.1,30.9,65,30.08,10.0,SSE,6.9,-,N/A,,Clear,150,2013-05-09 07:56:00
2:56 AM,48.0,30.9,52,30.06,10.0,South,5.8,-,N/A,,Clear,190,2013-05-09 08:56:00
3:56 AM,39.0,30.9,73,30.09,10.0,South,4.6,-,N/A,,Clear,170,2013-05-09 09:56:00
4:56 AM,42.1,30.9,65,30.09,10.0,South,6.9,-,N/A,,Clear,190,2013-05-09 10:56:00
5:56 AM,42.1,33.1,70,30.10,10.0,SE,6.9,-,N/A,,Overcast,140,2013-05-09 11:56:00
6:56 AM,46.0,30.9,56,30.10,10.0,SSW,6.9,-,N/A,,Clear,210,2013-05-09 12:56:00
7:56 AM,48.9,34.0,56,30.13,10.0,ENE,8.1,-,N/A,,Partly Cloudy,60,2013-05-09 13:56:00
8:56 AM,53.1,34.0,48,30.15,10.0,South,3.5,-,N/A,,Clear,190,2013-05-09 14:56:00
9:56 AM,57.0,35.1,44,30.14,10.0,South,4.6,-,N/A,,Scattered Clouds,180,2013-05-09 15:56:00
10:56 AM,64.0,35.1,34,30.10,10.0,Variable,5.8,-,N/A,,Clear,0,2013-05-09 16:56:00
11:56 AM,66.9,37.9,34,30.10,10.0,Calm,Calm,-,N/A,,Clear,0,2013-05-09 17:56:00
12:56 PM,70.0,32.0,25,30.07,10.0,SW,8.1,-,N/A,,Clear,220,2013-05-09 18:56:00
1:56 PM,73.0,30.9,21,30.06,10.0,Calm,Calm,-,N/A,,Clear,0,2013-05-09 19:56:00
2:56 PM,73.0,30.9,21,30.04,10.0,Variable,5.8,-,N/A,,Clear,0,2013-05-09 20:56:00
3:36 PM,71.6,33.8,25,30.10,10.0,NW,20.7,28.8,N/A,,Mostly Cloudy,310,2013-05-09 21:36:00
3:56 PM,71.1,35.1,27,30.06,10.0,NW,21.9,-,N/A,,Mostly Cloudy,310,2013-05-09 21:56:00
4:56 PM,73.0,33.1,23,30.06,10.0,WNW,10.4,-,N/A,,Clear,300,2013-05-09 22:56:00
5:26 PM,66.2,39.2,37,30.11,10.0,SE,18.4,-,N/A,,Mostly Cloudy,130,2013-05-09 23:26:00
5:56 PM,66.9,37.9,34,30.07,10.0,SE,20.7,26.5,N/A,,Partly Cloudy,140,2013-05-09 23:56:00
6:56 PM,66.9,36.0,32,30.06,10.0,SE,16.1,-,N/A,,Clear,140,2013-05-10 00:56:00
7:56 PM,64.0,37.0,37,30.06,10.0,SSE,11.5,-,N/A,,Clear,150,2013-05-10 01:56:00
8:56 PM,60.1,36.0,41,30.07,10.0,SSE,12.7,-,N/A,,Clear,150,2013-05-10 02:56:00
9:56 PM,55.9,36.0,47,30.09,10.0,SE,5.8,-,N/A,,Clear,140,2013-05-10 03:56:00
10:56 PM,52.0,36.0,54,30.11,10.0,South,6.9,-,N/A,,Clear,190,2013-05-10 04:56:00
11:56 PM,48.9,37.0,64,30.12,10.0,ESE,8.1,-,N/A,,Mostly Cloudy,120,2013-05-10 05:56:00